Wilmore, Kentucky
Current Conditions -  °F | °C
As of 10:54 PM on Friday 19 Dec 2014 (Local Time) from KLEX Reporting Station
Clear Clear  
Wind Chill: 15°   Ceiling: Unl
Heat Index: 23°   Visibility: 9mi
Dew Point: 19°   Wind: 7mph
Humidity: 85%   Direction: 60°ENE
Pressure: 30.25"   Gusts: NA
Location:  37.86°N, 84.66°W
Report Text: KLEX 200354Z AUTO 06006KT 9SM CLR M05/M07 A3025 RMK AO2 SLP254 T10501072
Loading
Personal Weather Stations






























Interactive Weather Map New forecast layout! Learn more

10-Day Weather Forecast

Advertisements
Track Severe Weather on mobile